createdAt,value
2024-03-02T00:00:43.019Z,95190.88
2024-03-02T00:03:15.341Z,95190.75
2024-03-02T00:05:43.210Z,95197.25
2024-03-02T00:08:11.487Z,95191.94
2024-03-02T00:10:41.869Z,95197.31
2024-03-02T00:13:10.042Z,95190.16
2024-03-02T00:15:47.886Z,95198.72
2024-03-02T00:18:21.019Z,95196.06
2024-03-02T00:20:49.379Z,95200.59
2024-03-02T00:23:19.284Z,95204.22
2024-03-02T00:25:49.653Z,95200.53
2024-03-02T00:28:19.969Z,95194.84
2024-03-02T00:30:55.193Z,95197.03
2024-03-02T00:33:26.065Z,95192.25
2024-03-02T00:35:54.700Z,95189.25
2024-03-02T00:38:22.497Z,95182.88
2024-03-02T00:40:50.397Z,95188.53
2024-03-02T00:43:51.763Z,95184.28
2024-03-02T00:46:21.170Z,95187.69
2024-03-02T00:48:58.186Z,95187.53
2024-03-02T00:51:27.529Z,95186.41
2024-03-02T00:53:57.540Z,95186.88
2024-03-02T00:56:26.364Z,95194.97
2024-03-02T00:58:54.137Z,95194.84
2024-03-02T01:01:22.240Z,95196.38
2024-03-02T01:03:51.121Z,95184.53
2024-03-02T01:06:20.569Z,95191.75
2024-03-02T01:08:51.512Z,95190.97
2024-03-02T01:11:20.051Z,95189.91
2024-03-02T01:13:48.175Z,95195.69
2024-03-02T01:16:16.733Z,95191.19
2024-03-02T01:18:44.394Z,95190.59
2024-03-02T01:21:12.056Z,95194.94
2024-03-02T01:23:41.054Z,95194.75
2024-03-02T01:26:08.750Z,95192.75
2024-03-02T01:28:36.350Z,95197.63
2024-03-02T01:31:04.148Z,95192.53
2024-03-02T01:33:31.871Z,95193.38
2024-03-02T01:35:59.534Z,95196.13
2024-03-02T01:38:27.140Z,95188.94
2024-03-02T01:40:57.789Z,95193.13
2024-03-02T01:43:25.448Z,95188.78
2024-03-02T01:45:53.228Z,95191.47
2024-03-02T01:48:21.359Z,95182.25
2024-03-02T01:50:49.026Z,95190.09
2024-03-02T01:53:16.602Z,95190.97
2024-03-02T01:55:44.233Z,95184.69
2024-03-02T01:58:13.258Z,95182.19
2024-03-02T02:00:41.062Z,95187.19
2024-03-02T02:03:08.804Z,95189.66
2024-03-02T02:05:37.141Z,95189.97
2024-03-02T02:08:05.083Z,95182.03
2024-03-02T02:10:32.697Z,95189.72
2024-03-02T02:13:00.401Z,95185.69
2024-03-02T02:15:31.646Z,95181.69
2024-03-02T02:18:00.800Z,95180.03
2024-03-02T02:20:28.897Z,95183.91
2024-03-02T02:23:02.489Z,95185.22
2024-03-02T02:25:30.994Z,95187.63
2024-03-02T02:27:59.806Z,95190.28
2024-03-02T02:30:30.347Z,95180.56
2024-03-02T02:32:58.643Z,95178.16
2024-03-02T02:35:26.261Z,95183.63
2024-03-02T02:37:55.628Z,95171.81
2024-03-02T02:40:24.920Z,95167.84
2024-03-02T02:42:53.949Z,95169.81
2024-03-02T02:45:21.753Z,95173.81
2024-03-02T02:47:49.393Z,95165.78
2024-03-02T02:50:17.001Z,95166.88
2024-03-02T02:52:44.943Z,95159.59
2024-03-02T02:55:14.031Z,95161.84
2024-03-02T02:57:45.068Z,95168.44
2024-03-02T03:00:17.177Z,95165.38
2024-03-02T03:02:48.368Z,95162.91
2024-03-02T03:05:16.117Z,95166.44
2024-03-02T03:07:45.353Z,95170.50
2024-03-02T03:10:14.104Z,95169.34
2024-03-02T03:12:44.329Z,95166.75
2024-03-02T03:15:13.671Z,95158.06
2024-03-02T03:17:41.608Z,95164.53
2024-03-02T03:20:11.688Z,95170.56
2024-03-02T03:22:39.344Z,95161.41
2024-03-02T03:25:09.162Z,95166.78
2024-03-02T03:27:37.046Z,95163.25
2024-03-02T03:30:08.387Z,95167.19
2024-03-02T03:32:36.118Z,95164.88
2024-03-02T03:35:03.905Z,95166.53
2024-03-02T03:37:34.583Z,95168.09
2024-03-02T03:40:03.829Z,95170.81
2024-03-02T03:42:31.484Z,95178.50
2024-03-02T03:44:59.058Z,95170.41
2024-03-02T03:47:28.020Z,95169.72
2024-03-02T03:49:55.614Z,95168.06
2024-03-02T03:52:23.144Z,95169.91
2024-03-02T03:54:50.717Z,95161.28
2024-03-02T03:57:18.596Z,95168.16
2024-03-02T03:59:47.412Z,95170.66
2024-03-02T04:02:15.024Z,95167.03
2024-03-02T04:04:44.790Z,95163.50
2024-03-02T04:07:12.371Z,95175.31
2024-03-02T04:09:40.038Z,95175.09
2024-03-02T04:12:07.861Z,95180.34
2024-03-02T04:14:35.406Z,95184.59
2024-03-02T04:17:03.005Z,95185.44
2024-03-02T04:19:30.553Z,95182.75
2024-03-02T04:22:01.646Z,95193.69
2024-03-02T04:24:33.313Z,95185.56
2024-03-02T04:27:00.894Z,95189.09
2024-03-02T04:29:28.609Z,95193.34
2024-03-02T04:31:56.250Z,95190.38
2024-03-02T04:34:24.101Z,95196.72
2024-03-02T04:36:51.811Z,95194.16
2024-03-02T04:39:20.775Z,95199.44
2024-03-02T04:41:48.940Z,95200.06
2024-03-02T04:44:16.839Z,95200.84
2024-03-02T04:46:44.402Z,95202.72
2024-03-02T04:49:12.080Z,95200.91
2024-03-02T04:51:39.753Z,95206.78
2024-03-02T04:54:07.366Z,95215.84
2024-03-02T04:56:45.736Z,95215.63
2024-03-02T04:59:13.564Z,95217.47
2024-03-02T05:01:41.130Z,95210.34
2024-03-02T05:04:08.935Z,95212.91
2024-03-02T05:06:36.482Z,95215.41
2024-03-02T05:09:04.103Z,95224.50
2024-03-02T05:11:49.787Z,95221.41
2024-03-02T05:14:18.692Z,95224.00
2024-03-02T05:16:46.227Z,95223.41
2024-03-02T05:19:13.764Z,95222.22
2024-03-02T05:21:41.361Z,95220.50
2024-03-02T05:24:09.350Z,95221.88
2024-03-02T05:26:36.916Z,95216.09
2024-03-02T05:29:04.675Z,95211.13
2024-03-02T05:31:33.568Z,95214.06
2024-03-02T05:34:01.146Z,95214.41
2024-03-02T05:36:28.824Z,95217.69
2024-03-02T05:38:56.411Z,95218.72
2024-03-02T05:41:24.030Z,95214.81
2024-03-02T05:43:51.623Z,95212.50
2024-03-02T05:46:19.154Z,95211.97
2024-03-02T05:48:48.091Z,95222.19
2024-03-02T05:51:15.640Z,95220.50
2024-03-02T05:53:43.183Z,95220.00
2024-03-02T05:56:10.768Z,95219.81
2024-03-02T05:58:54.223Z,95223.19
2024-03-02T06:01:23.713Z,95221.91
2024-03-02T06:03:52.809Z,95225.06
2024-03-02T06:06:20.480Z,95224.16
2024-03-02T06:08:48.129Z,95230.28
2024-03-02T06:11:15.760Z,95224.13
2024-03-02T06:13:43.292Z,95226.97
2024-03-02T06:16:10.816Z,95222.88
2024-03-02T06:18:38.555Z,95228.84
2024-03-02T06:21:07.654Z,95226.19
2024-03-02T06:23:35.829Z,95228.06
2024-03-02T06:26:04.024Z,95231.00
2024-03-02T06:28:31.789Z,95226.28
2024-03-02T06:30:59.448Z,95226.38
2024-03-02T06:33:27.389Z,95231.44
2024-03-02T06:35:55.005Z,95229.88
2024-03-02T06:38:23.857Z,95233.94
2024-03-02T06:40:51.631Z,95239.75
2024-03-02T06:43:19.197Z,95234.38
2024-03-02T06:45:46.767Z,95234.50
2024-03-02T06:48:16.464Z,95234.09
2024-03-02T06:50:43.993Z,95231.06
2024-03-02T06:53:11.533Z,95240.13
2024-03-02T06:55:40.414Z,95240.16
2024-03-02T06:58:08.001Z,95237.97
2024-03-02T07:00:35.656Z,95237.19
2024-03-02T07:03:03.443Z,95243.75
2024-03-02T07:05:31.002Z,95238.47
2024-03-02T07:07:58.528Z,95240.59
2024-03-02T07:10:26.031Z,95243.69
2024-03-02T07:12:54.920Z,95243.25
2024-03-02T07:15:46.169Z,95243.56
2024-03-02T07:18:13.786Z,95245.09
2024-03-02T07:20:41.283Z,95250.19
2024-03-02T07:23:09.571Z,95244.34
2024-03-02T07:28:09.308Z,95254.47
2024-03-02T07:30:39.158Z,95251.41
2024-03-02T07:33:07.348Z,95264.63
2024-03-02T07:35:34.920Z,95262.69
2024-03-02T07:38:02.796Z,95269.88
2024-03-02T07:40:30.441Z,95263.75
2024-03-02T07:42:58.185Z,95271.75
2024-03-02T07:45:27.182Z,95279.75
2024-03-02T07:47:54.878Z,95272.72
2024-03-02T07:50:22.797Z,95276.09
2024-03-02T07:52:50.337Z,95277.91
2024-03-02T07:55:17.904Z,95279.72
2024-03-02T07:57:45.585Z,95286.63
2024-03-02T08:00:15.717Z,95284.78
2024-03-02T08:02:44.789Z,95292.31
2024-03-02T08:05:12.436Z,95295.44
2024-03-02T08:07:40.053Z,95300.47
2024-03-02T08:10:08.635Z,95312.88
2024-03-02T08:12:36.236Z,95307.66
2024-03-02T08:15:03.922Z,95306.03
2024-03-02T08:17:32.669Z,95312.13
2024-03-02T08:20:04.002Z,95300.50
2024-03-02T08:22:31.575Z,95309.28
2024-03-02T08:24:59.815Z,95311.09
2024-03-02T08:27:27.471Z,95318.38
2024-03-02T08:29:55.045Z,95326.34
2024-03-02T08:32:23.463Z,95321.69
2024-03-02T08:34:51.046Z,95323.31
2024-03-02T08:37:19.981Z,95328.59
2024-03-02T08:39:47.659Z,95323.63
2024-03-02T08:42:15.419Z,95320.75
2024-03-02T08:44:43.058Z,95326.19
2024-03-02T08:47:10.614Z,95318.75
2024-03-02T08:49:38.152Z,95315.00
2024-03-02T08:52:06.161Z,95319.53
2024-03-02T08:54:36.766Z,95323.53
2024-03-02T08:57:04.678Z,95329.53
2024-03-02T08:59:32.550Z,95331.84
2024-03-02T09:02:01.352Z,95333.53
2024-03-02T09:04:32.570Z,95334.31
2024-03-02T09:07:02.394Z,95339.41
2024-03-02T09:09:30.097Z,95339.03
2024-03-02T09:11:59.321Z,95329.91
2024-03-02T09:14:27.107Z,95328.19
2024-03-02T09:16:54.780Z,95332.22
2024-03-02T09:19:22.353Z,95331.88
2024-03-02T09:21:51.372Z,95337.75
2024-03-02T09:24:18.936Z,95332.44
2024-03-02T09:26:46.519Z,95325.59
2024-03-02T09:29:15.610Z,95330.06
2024-03-02T09:31:43.534Z,95333.72
2024-03-02T09:34:11.416Z,95339.22
2024-03-02T09:36:39.093Z,95336.31
2024-03-02T09:39:06.684Z,95336.31
2024-03-02T09:41:35.383Z,95335.28
2024-03-02T09:44:03.335Z,95330.59
2024-03-02T09:46:32.510Z,95328.72
2024-03-02T09:49:00.755Z,95321.47
2024-03-02T09:51:28.524Z,95331.25
2024-03-02T09:54:06.326Z,95323.81
2024-03-02T09:56:40.828Z,95327.50
2024-03-02T09:59:08.577Z,95328.97
2024-03-02T10:01:37.528Z,95318.09
2024-03-02T10:04:07.482Z,95316.38
2024-03-02T10:06:35.166Z,95315.09
2024-03-02T10:09:02.750Z,95313.94
2024-03-02T10:11:32.268Z,95310.19
2024-03-02T10:14:10.214Z,95303.41
2024-03-02T10:16:39.949Z,95307.84
2024-03-02T10:19:20.841Z,95309.78
2024-03-02T10:21:49.246Z,95308.63
2024-03-02T10:24:17.039Z,95307.13
2024-03-02T10:26:44.760Z,95306.38
2024-03-02T10:29:12.854Z,95297.03
2024-03-02T10:31:43.404Z,95301.81
2024-03-02T10:34:12.867Z,95301.13
2024-03-02T10:36:44.029Z,95303.19
2024-03-02T10:39:11.972Z,95302.31
2024-03-02T10:41:41.247Z,95300.81
2024-03-02T10:44:10.346Z,95292.59
2024-03-02T10:46:39.000Z,95293.63
2024-03-02T10:49:09.451Z,95287.53
2024-03-02T10:51:38.811Z,95280.34
2024-03-02T10:54:07.246Z,95277.31
2024-03-02T10:56:40.495Z,95281.97
2024-03-02T10:59:20.996Z,95273.13
2024-03-02T11:01:50.228Z,95279.19
2024-03-02T11:04:20.726Z,95277.19
2024-03-02T11:06:51.192Z,95265.34
2024-03-02T11:09:22.135Z,95269.03
2024-03-02T11:11:58.233Z,95260.19
2024-03-02T11:14:27.332Z,95259.34
2024-03-02T11:16:55.610Z,95257.13
2024-03-02T11:19:25.482Z,95264.47
2024-03-02T11:21:54.187Z,95261.63
2024-03-02T11:24:37.702Z,95249.28
2024-03-02T11:27:08.705Z,95248.84
2024-03-02T11:29:46.460Z,95242.31
2024-03-02T11:32:23.207Z,95239.19
2024-03-02T11:34:52.861Z,95235.84
2024-03-02T11:37:22.300Z,95229.81
2024-03-02T11:39:52.546Z,95229.66
2024-03-02T11:42:20.349Z,95236.91
2024-03-02T11:44:49.418Z,95223.09
2024-03-02T11:47:18.832Z,95223.31
2024-03-02T11:49:48.013Z,95223.13
2024-03-02T11:52:19.023Z,95222.81
2024-03-02T11:54:52.644Z,95213.44
2024-03-02T11:57:23.520Z,95220.16
2024-03-02T11:59:51.928Z,95219.69
2024-03-02T12:02:20.538Z,95209.50
2024-03-02T12:04:49.875Z,95208.75
2024-03-02T12:07:23.344Z,95197.91
2024-03-02T12:09:51.156Z,95202.44
2024-03-02T12:12:21.949Z,95208.34
2024-03-02T12:14:53.754Z,95203.81
2024-03-02T12:17:21.399Z,95209.28
2024-03-02T12:19:49.333Z,95198.88
2024-03-02T12:22:17.217Z,95192.47
2024-03-02T12:24:47.430Z,95189.41
2024-03-02T12:27:17.042Z,95178.97
2024-03-02T12:29:45.264Z,95182.19
2024-03-02T12:32:12.997Z,95178.63
2024-03-02T12:34:40.695Z,95172.47
2024-03-02T12:37:08.360Z,95169.94
2024-03-02T12:39:36.195Z,95170.06
2024-03-02T12:42:05.035Z,95159.75
2024-03-02T12:44:32.679Z,95161.03
2024-03-02T12:47:02.194Z,95163.50
2024-03-02T12:49:31.786Z,95152.84
2024-03-02T12:51:59.507Z,95154.69
2024-03-02T12:54:28.162Z,95149.97
2024-03-02T12:56:55.899Z,95153.53
2024-03-02T12:59:27.784Z,95145.91
2024-03-02T13:01:58.376Z,95146.25
2024-03-02T13:04:26.817Z,95146.06
2024-03-02T13:06:54.915Z,95135.44
2024-03-02T13:09:22.731Z,95133.53
2024-03-02T13:11:50.983Z,95129.16
2024-03-02T13:14:18.650Z,95131.53
2024-03-02T13:16:48.558Z,95128.19
2024-03-02T13:19:16.533Z,95124.06
2024-03-02T13:21:44.278Z,95132.41
2024-03-02T13:24:11.955Z,95128.56
2024-03-02T13:26:41.480Z,95116.75
2024-03-02T13:29:09.272Z,95119.63
2024-03-02T13:31:36.885Z,95117.38
2024-03-02T13:34:05.956Z,95110.53
2024-03-02T13:36:33.773Z,95107.84
2024-03-02T13:39:01.364Z,95105.31
2024-03-02T13:41:29.001Z,95103.88
2024-03-02T13:43:56.929Z,95097.63
2024-03-02T13:46:24.665Z,95089.66
2024-03-02T13:48:52.617Z,95098.63
2024-03-02T13:51:21.929Z,95094.19
2024-03-02T13:53:49.546Z,95101.63
2024-03-02T13:56:17.174Z,95091.75
2024-03-02T13:58:44.407Z,95104.53
2024-03-02T14:01:12.188Z,95096.94
2024-03-02T14:03:40.029Z,95093.78
2024-03-02T14:06:07.874Z,95088.50
2024-03-02T14:08:37.121Z,95090.63
2024-03-02T14:11:05.120Z,95098.22
2024-03-02T14:13:32.785Z,95087.06
2024-03-02T14:16:00.588Z,95089.50
2024-03-02T14:18:28.349Z,95091.47
2024-03-02T14:20:57.357Z,95083.84
2024-03-02T14:23:26.888Z,95083.13
2024-03-02T14:25:55.881Z,95080.75
2024-03-02T14:28:43.337Z,95081.03
2024-03-02T14:31:11.473Z,95077.81
2024-03-02T14:33:39.235Z,95088.25
2024-03-02T14:36:07.742Z,95084.34
2024-03-02T14:38:35.756Z,95080.22
2024-03-02T14:41:05.006Z,95072.38
2024-03-02T14:43:32.873Z,95073.94
2024-03-02T14:46:00.942Z,95070.59
2024-03-02T14:48:28.679Z,95071.25
2024-03-02T14:50:56.412Z,95074.09
2024-03-02T14:53:24.009Z,95072.38
2024-03-02T14:55:51.690Z,95063.97
2024-03-02T14:58:20.624Z,95066.78
2024-03-02T15:00:48.288Z,95071.72
2024-03-02T15:03:16.254Z,95064.56
2024-03-02T15:05:43.816Z,95068.66
2024-03-02T15:08:11.837Z,95063.81
2024-03-02T15:10:40.345Z,95064.75
2024-03-02T15:13:08.690Z,95066.25
2024-03-02T15:15:37.888Z,95062.75
2024-03-02T15:18:06.914Z,95050.28
2024-03-02T15:20:34.795Z,95042.66
2024-03-02T15:23:02.546Z,95035.41
2024-03-02T15:25:30.110Z,95038.00
2024-03-02T15:27:58.522Z,95035.25
2024-03-02T15:30:26.247Z,95037.81
2024-03-02T15:32:55.332Z,95040.72
2024-03-02T15:35:22.923Z,95039.59
2024-03-02T15:37:50.505Z,95034.84
2024-03-02T15:40:18.170Z,95038.00
2024-03-02T15:42:45.806Z,95039.66
2024-03-02T15:45:13.399Z,95029.28
2024-03-02T15:47:41.071Z,95035.25
2024-03-02T15:50:11.306Z,95026.00
2024-03-02T15:52:38.965Z,95030.03
2024-03-02T15:55:07.486Z,95024.31
2024-03-02T15:57:36.223Z,95018.91
2024-03-02T16:00:06.061Z,95017.31
2024-03-02T16:02:33.996Z,95020.63
2024-03-02T16:05:01.613Z,95029.13
2024-03-02T16:07:30.502Z,95018.25
2024-03-02T16:09:58.367Z,95017.16
2024-03-02T16:12:26.039Z,95015.13
2024-03-02T16:14:53.861Z,95021.81
2024-03-02T16:17:21.454Z,95020.81
2024-03-02T16:19:49.256Z,95022.22
2024-03-02T16:22:16.969Z,95018.25
2024-03-02T16:24:46.143Z,95008.75
2024-03-02T16:27:14.132Z,95019.91
2024-03-02T16:29:41.688Z,95025.28
2024-03-02T16:32:09.247Z,95016.91
2024-03-02T16:34:39.014Z,95028.78
2024-03-02T16:37:06.826Z,95028.16
2024-03-02T16:39:34.722Z,95016.38
2024-03-02T16:42:03.716Z,95008.06
2024-03-02T16:44:31.287Z,95013.47
2024-03-02T16:46:58.840Z,95018.53
2024-03-02T16:49:26.393Z,95016.59
2024-03-02T16:51:54.081Z,95010.38
2024-03-02T16:54:21.665Z,95015.66
2024-03-02T16:56:49.262Z,95017.59
2024-03-02T16:59:18.195Z,95019.91
2024-03-02T17:01:45.792Z,95018.31
2024-03-02T17:04:13.468Z,95021.78
2024-03-02T17:06:41.068Z,95017.94
2024-03-02T17:09:08.666Z,95024.94
2024-03-02T17:11:36.439Z,95021.66
2024-03-02T17:14:04.768Z,95018.50
2024-03-02T17:16:33.696Z,95016.94
2024-03-02T17:19:01.604Z,95019.81
2024-03-02T17:21:29.226Z,95018.84
2024-03-02T17:23:57.173Z,95019.09
2024-03-02T17:26:24.760Z,95024.78
2024-03-02T17:28:52.359Z,95018.34
2024-03-02T17:31:19.932Z,95021.06
2024-03-02T17:33:48.866Z,95017.88
2024-03-02T17:36:16.696Z,95017.69
2024-03-02T17:38:44.427Z,95023.00
2024-03-02T17:41:12.235Z,95030.59
2024-03-02T17:43:40.335Z,95030.22
2024-03-02T17:46:08.464Z,95034.78
2024-03-02T17:48:36.153Z,95029.88
2024-03-02T17:51:08.934Z,95034.50
2024-03-02T17:53:37.215Z,95034.66
2024-03-02T17:56:05.689Z,95028.31
2024-03-02T17:58:33.898Z,95031.25
2024-03-02T18:01:01.538Z,95029.44
2024-03-02T18:03:29.142Z,95023.44
2024-03-02T18:05:56.846Z,95017.22
2024-03-02T18:08:25.767Z,95016.00
2024-03-02T18:10:53.334Z,95008.84
2024-03-02T18:13:20.952Z,95007.88
2024-03-02T18:15:51.350Z,95010.25
2024-03-02T18:18:19.441Z,95010.00
2024-03-02T18:20:47.015Z,95013.94
2024-03-02T18:23:14.810Z,95006.50
2024-03-02T18:25:48.305Z,95007.34
2024-03-02T18:28:16.357Z,95000.63
2024-03-02T18:30:44.120Z,94999.56
2024-03-02T18:33:11.757Z,94998.19
2024-03-02T18:35:39.357Z,95003.53
2024-03-02T18:38:06.902Z,94994.03
2024-03-02T18:40:34.442Z,94994.16
2024-03-02T18:43:05.031Z,94988.41
2024-03-02T18:45:32.943Z,94990.00
2024-03-02T18:48:03.843Z,94987.59
2024-03-02T18:50:32.343Z,94996.28
2024-03-02T18:52:59.931Z,94993.09
2024-03-02T18:55:27.830Z,94996.28
2024-03-02T18:57:56.420Z,94997.94
2024-03-02T19:00:25.569Z,94993.13
2024-03-02T19:02:53.515Z,94988.16
2024-03-02T19:05:21.162Z,94984.22
2024-03-02T19:07:48.759Z,94984.88
2024-03-02T19:10:16.973Z,94985.00
2024-03-02T19:12:44.638Z,94989.81
2024-03-02T19:15:15.100Z,94987.84
2024-03-02T19:17:44.137Z,94982.31
2024-03-02T19:20:12.961Z,94986.75
2024-03-02T19:22:40.988Z,94980.59
2024-03-02T19:25:12.660Z,94980.44
2024-03-02T19:27:40.487Z,94970.91
2024-03-02T19:30:09.633Z,94980.75
2024-03-02T19:32:37.207Z,94975.28
2024-03-02T19:35:07.610Z,94971.88
2024-03-02T19:37:37.165Z,94968.56
2024-03-02T19:40:06.755Z,94977.13
2024-03-02T19:42:35.812Z,94969.28
2024-03-02T19:45:05.410Z,94966.75
2024-03-02T19:47:33.507Z,94964.72
2024-03-02T19:50:01.172Z,94961.44
2024-03-02T19:52:30.182Z,94966.59
2024-03-02T19:54:57.838Z,94967.16
2024-03-02T19:57:26.420Z,94970.69
2024-03-02T19:59:54.015Z,94966.44
2024-03-02T20:02:23.130Z,94958.06
2024-03-02T20:04:50.671Z,94964.28
2024-03-02T20:07:18.397Z,94964.91
2024-03-02T20:09:49.203Z,94958.44
2024-03-02T20:12:16.930Z,94962.78
2024-03-02T20:14:46.906Z,94960.66
2024-03-02T20:17:15.082Z,94962.59
2024-03-02T20:19:43.157Z,94959.00
2024-03-02T20:22:10.844Z,94965.97
2024-03-02T20:24:38.477Z,94958.59
2024-03-02T20:27:08.138Z,94961.31
2024-03-02T20:29:35.761Z,94949.59
2024-03-02T20:32:03.858Z,94958.00
2024-03-02T20:34:31.512Z,94955.53
2024-03-02T20:37:01.653Z,94954.16
2024-03-02T20:39:29.314Z,94954.19
2024-03-02T20:41:56.930Z,94949.81
2024-03-02T20:44:27.137Z,94955.00
2024-03-02T20:46:55.494Z,94961.47
2024-03-02T20:49:24.809Z,94953.78
2024-03-02T20:51:52.513Z,94943.13
2024-03-02T20:54:20.119Z,94938.81
2024-03-02T20:56:47.708Z,94942.09
2024-03-02T20:59:15.338Z,94935.06
2024-03-02T21:01:45.702Z,94935.22
2024-03-02T21:04:15.778Z,94936.00
2024-03-02T21:06:44.682Z,94932.44
2024-03-02T21:09:12.306Z,94934.09
2024-03-02T21:11:39.898Z,94927.47
2024-03-02T21:14:07.507Z,94937.53
2024-03-02T21:16:35.037Z,94935.59
2024-03-02T21:19:04.066Z,94930.94
2024-03-02T21:21:31.627Z,94933.00
2024-03-02T21:23:59.236Z,94932.13
2024-03-02T21:26:27.418Z,94926.41
2024-03-02T21:28:54.991Z,94930.47
2024-03-02T21:31:22.613Z,94924.69
2024-03-02T21:33:50.251Z,94913.53
2024-03-02T21:36:19.133Z,94918.94
2024-03-02T21:38:46.641Z,94927.13
2024-03-02T21:41:14.173Z,94930.25
2024-03-02T21:43:42.877Z,94928.22
2024-03-02T21:46:12.525Z,94930.63
2024-03-02T21:48:40.389Z,94931.63
2024-03-02T21:51:08.555Z,94931.50
2024-03-02T21:53:38.092Z,94923.00
2024-03-02T21:56:06.531Z,94915.31
2024-03-02T21:58:34.082Z,94912.63
2024-03-02T22:01:01.719Z,94917.31
2024-03-02T22:03:29.327Z,94912.69
2024-03-02T22:05:56.912Z,94908.41
2024-03-02T22:08:24.650Z,94916.25
2024-03-02T22:10:53.577Z,94918.81
2024-03-02T22:13:21.987Z,94909.22
2024-03-02T22:15:49.695Z,94906.53
2024-03-02T22:18:17.293Z,94896.72
2024-03-02T22:20:45.003Z,94889.19
2024-03-02T22:23:12.736Z,94895.78
2024-03-02T22:25:40.935Z,94896.47
2024-03-02T22:28:09.865Z,94890.72
2024-03-02T22:30:37.484Z,94890.06
2024-03-02T22:33:05.417Z,94893.22
2024-03-02T22:35:32.981Z,94890.34
2024-03-02T22:38:00.547Z,94891.22
2024-03-02T22:40:28.268Z,94887.81
2024-03-02T22:42:59.279Z,94885.16
2024-03-02T22:45:28.234Z,94885.41
2024-03-02T22:47:56.072Z,94886.78
2024-03-02T22:50:24.626Z,94883.53
2024-03-02T22:52:52.427Z,94882.97
2024-03-02T22:55:20.246Z,94883.06
2024-03-02T22:57:48.029Z,94880.41
2024-03-02T23:00:32.218Z,94872.06
2024-03-02T23:03:01.407Z,94879.88
2024-03-02T23:05:29.013Z,94879.72
2024-03-02T23:07:56.908Z,94877.59
2024-03-02T23:10:24.533Z,94876.47
2024-03-02T23:12:52.087Z,94866.63
2024-03-02T23:15:19.660Z,94867.50
2024-03-02T23:17:47.225Z,94860.53
2024-03-02T23:20:16.625Z,94857.84
2024-03-02T23:22:45.817Z,94848.25
2024-03-02T23:25:13.516Z,94850.44
2024-03-02T23:27:41.128Z,94848.25
2024-03-02T23:30:10.785Z,94841.69
2024-03-02T23:32:38.399Z,94843.91
2024-03-02T23:35:06.489Z,94839.66
2024-03-02T23:37:35.432Z,94845.63
2024-03-02T23:40:20.993Z,94851.31
2024-03-02T23:42:48.723Z,94841.91
2024-03-02T23:45:16.929Z,94846.97
2024-03-02T23:47:44.540Z,94842.53
2024-03-02T23:50:12.914Z,94832.06
2024-03-02T23:52:41.779Z,94834.72
2024-03-02T23:55:10.014Z,94827.06
2024-03-02T23:57:37.721Z,94819.25
